createdAt,value
2023-03-13T00:01:47.279Z,96019.97
2023-03-13T00:04:20.356Z,96023.50
2023-03-13T00:06:53.086Z,96028.19
2023-03-13T00:09:27.265Z,96016.00
2023-03-13T00:11:59.965Z,96008.88
2023-03-13T00:14:34.406Z,96009.00
2023-03-13T00:17:07.502Z,96003.28
2023-03-13T00:19:40.452Z,96006.06
2023-03-13T00:22:13.118Z,95998.81
2023-03-13T00:24:47.054Z,95993.59
2023-03-13T00:27:19.689Z,96001.25
2023-03-13T00:29:53.809Z,95999.00
2023-03-13T00:32:26.539Z,95993.78
2023-03-13T00:34:59.261Z,95986.16
2023-03-13T00:37:32.974Z,95974.00
2023-03-13T00:40:06.135Z,95983.25
2023-03-13T00:42:38.946Z,95974.56
2023-03-13T00:45:13.969Z,95971.16
2023-03-13T00:47:46.682Z,95980.44
2023-03-13T00:50:19.466Z,95978.19
2023-03-13T00:52:52.111Z,95977.06
2023-03-13T00:55:24.796Z,95980.63
2023-03-13T00:57:57.511Z,95968.78
2023-03-13T01:00:32.394Z,95968.44
2023-03-13T01:03:05.227Z,95965.06
2023-03-13T01:05:38.095Z,95967.41
2023-03-13T01:08:10.876Z,95967.84
2023-03-13T01:10:43.590Z,95968.28
2023-03-13T01:13:16.443Z,95964.91
2023-03-13T01:15:50.658Z,95960.34
2023-03-13T01:18:23.395Z,95965.00
2023-03-13T01:20:56.154Z,95963.56
2023-03-13T01:23:29.292Z,95952.50
2023-03-13T01:26:02.089Z,95949.91
2023-03-13T01:28:35.286Z,95940.41
2023-03-13T01:31:17.776Z,95947.72
2023-03-13T01:33:51.324Z,95943.59
2023-03-13T01:36:24.252Z,95938.31
2023-03-13T01:38:57.965Z,95950.28
2023-03-13T01:41:31.318Z,95941.06
2023-03-13T01:44:04.172Z,95949.22
2023-03-13T01:46:38.531Z,95943.19
2023-03-13T01:49:13.172Z,95944.38
2023-03-13T01:51:50.629Z,95935.22
2023-03-13T01:54:24.837Z,95923.03
2023-03-13T01:56:59.376Z,95923.81
2023-03-13T01:59:33.475Z,95926.59
2023-03-13T02:02:08.379Z,95916.63
2023-03-13T02:04:45.407Z,95911.72
2023-03-13T02:07:19.662Z,95909.81
2023-03-13T02:09:53.783Z,95904.53
2023-03-13T02:12:30.426Z,95900.75
2023-03-13T02:15:05.330Z,95897.28
2023-03-13T02:17:39.980Z,95894.22
2023-03-13T02:20:13.610Z,95900.81
2023-03-13T02:22:48.665Z,95905.38
2023-03-13T02:25:23.734Z,95905.81
2023-03-13T02:28:00.114Z,95902.38
2023-03-13T02:30:33.869Z,95902.72
2023-03-13T02:33:06.639Z,95898.13
2023-03-13T02:35:39.679Z,95891.97
2023-03-13T02:38:14.156Z,95889.75
2023-03-13T02:40:47.976Z,95890.53
2023-03-13T02:43:23.640Z,95891.31
2023-03-13T02:46:03.206Z,95878.25
2023-03-13T02:48:37.233Z,95869.06
2023-03-13T02:51:13.646Z,95862.94
2023-03-13T02:53:47.953Z,95849.53
2023-03-13T02:56:22.781Z,95861.38
2023-03-13T02:58:57.220Z,95847.97
2023-03-13T03:01:29.876Z,95844.50
2023-03-13T03:04:02.668Z,95851.78
2023-03-13T03:06:35.469Z,95853.69
2023-03-13T03:09:09.560Z,95856.34
2023-03-13T03:11:42.272Z,95856.28
2023-03-13T03:14:16.843Z,95850.16
2023-03-13T03:16:49.547Z,95856.97
2023-03-13T03:19:22.275Z,95852.75
2023-03-13T03:21:54.876Z,95852.41
2023-03-13T03:24:27.701Z,95858.53
2023-03-13T03:27:00.730Z,95851.72
2023-03-13T03:29:35.114Z,95855.94
2023-03-13T03:32:07.894Z,95857.91
2023-03-13T03:34:41.062Z,95854.53
2023-03-13T03:37:13.930Z,95853.06
2023-03-13T03:39:46.744Z,95851.59
2023-03-13T03:42:19.377Z,95850.13
2023-03-13T03:44:53.591Z,95841.38
2023-03-13T03:47:26.359Z,95844.13
2023-03-13T03:49:59.220Z,95838.41
2023-03-13T03:52:31.923Z,95835.81
2023-03-13T03:55:04.905Z,95835.09
2023-03-13T03:57:37.568Z,95844.00
2023-03-13T04:00:15.820Z,95843.66
2023-03-13T04:02:49.668Z,95846.03
2023-03-13T04:05:22.716Z,95851.06
2023-03-13T04:07:55.525Z,95856.09
2023-03-13T04:10:28.401Z,95862.28
2023-03-13T04:13:01.114Z,95857.34
2023-03-13T04:15:35.475Z,95852.41
2023-03-13T04:18:08.198Z,95857.06
2023-03-13T04:20:41.260Z,95858.25
2023-03-13T04:23:14.067Z,95865.63
2023-03-13T04:25:46.820Z,95855.28
2023-03-13T04:28:19.479Z,95828.53
2023-03-13T04:30:57.529Z,95814.00
2023-03-13T04:33:30.254Z,95827.50
2023-03-13T04:36:03.070Z,95821.41
2023-03-13T04:38:35.773Z,95818.38
2023-03-13T04:41:08.843Z,95827.63
2023-03-13T04:43:41.539Z,95821.91
2023-03-13T04:46:15.834Z,95821.94
2023-03-13T04:48:48.483Z,95825.06
2023-03-13T04:51:21.281Z,95822.81
2023-03-13T04:53:54.009Z,95823.59
2023-03-13T04:56:42.324Z,95826.31
2023-03-13T04:59:16.708Z,95821.72
2023-03-13T05:01:50.817Z,95821.03
2023-03-13T05:04:23.452Z,95809.56
2023-03-13T05:06:56.338Z,95817.25
2023-03-13T05:09:28.970Z,95803.47
2023-03-13T05:12:01.912Z,95797.75
2023-03-13T05:14:34.597Z,95808.16
2023-03-13T05:17:08.708Z,95803.56
2023-03-13T05:19:41.687Z,95809.31
2023-03-13T05:22:14.501Z,95802.03
2023-03-13T05:24:47.357Z,95799.44
2023-03-13T05:27:20.223Z,95800.22
2023-03-13T05:29:52.879Z,95798.31
2023-03-13T05:32:27.366Z,95779.16
2023-03-13T05:35:00.119Z,95790.28
2023-03-13T05:37:32.821Z,95779.56
2023-03-13T05:40:06.442Z,95779.97
2023-03-13T05:42:39.183Z,95790.81
2023-03-13T05:45:12.594Z,95783.88
2023-03-13T05:47:46.687Z,95789.69
2023-03-13T05:50:19.459Z,95786.66
2023-03-13T05:52:52.505Z,95792.03
2023-03-13T05:55:25.132Z,95788.59
2023-03-13T05:57:57.887Z,95794.38
2023-03-13T06:00:30.519Z,95793.25
2023-03-13T06:03:04.859Z,95781.38
2023-03-13T06:05:37.506Z,95782.97
2023-03-13T06:08:10.213Z,95788.34
2023-03-13T06:10:42.854Z,95780.72
2023-03-13T06:13:20.003Z,95785.00
2023-03-13T06:15:53.885Z,95782.31
2023-03-13T06:18:28.522Z,95788.88
2023-03-13T06:21:02.713Z,95783.94
2023-03-13T06:23:35.931Z,95772.81
2023-03-13T06:26:08.685Z,95771.31
2023-03-13T06:28:41.495Z,95773.66
2023-03-13T06:31:14.233Z,95777.53
2023-03-13T06:33:49.746Z,95781.41
2023-03-13T06:36:23.908Z,95767.59
2023-03-13T06:38:56.788Z,95772.69
2023-03-13T06:41:29.447Z,95773.44
2023-03-13T06:44:02.298Z,95783.88
2023-03-13T06:46:35.235Z,95782.38
2023-03-13T06:49:09.528Z,95775.91
2023-03-13T06:51:42.456Z,95766.72
2023-03-13T06:54:15.237Z,95775.63
2023-03-13T06:56:47.873Z,95774.13
2023-03-13T06:59:20.534Z,95774.94
2023-03-13T07:01:53.154Z,95778.06
2023-03-13T07:04:27.230Z,95768.94
2023-03-13T07:07:00.002Z,95770.91
2023-03-13T07:09:32.820Z,95751.75
2023-03-13T07:12:05.747Z,95753.34
2023-03-13T07:14:38.407Z,95736.53
2023-03-13T07:17:11.102Z,95726.97
2023-03-13T07:19:45.457Z,95728.97
2023-03-13T07:22:18.355Z,95736.00
2023-03-13T07:24:51.097Z,95736.88
2023-03-13T07:27:23.849Z,95747.38
2023-03-13T07:29:56.885Z,95756.72
2023-03-13T07:32:32.564Z,95749.53
2023-03-13T07:35:07.819Z,95755.03
2023-03-13T07:37:40.468Z,95741.31
2023-03-13T07:40:13.501Z,95754.91
2023-03-13T07:42:46.209Z,95757.69
2023-03-13T07:45:18.996Z,95766.31
2023-03-13T07:47:51.589Z,95764.47
2023-03-13T07:50:26.046Z,95774.19
2023-03-13T07:52:58.748Z,95765.41
2023-03-13T07:55:31.406Z,95781.63
2023-03-13T07:58:04.256Z,95772.84
2023-03-13T08:00:36.926Z,95762.84
2023-03-13T08:03:10.255Z,95770.22
2023-03-13T08:05:44.676Z,95769.88
2023-03-13T08:08:17.389Z,95773.00
2023-03-13T08:10:50.439Z,95764.22
2023-03-13T08:13:23.172Z,95770.78
2023-03-13T08:16:02.724Z,95763.09
2023-03-13T08:18:35.993Z,95761.59
2023-03-13T08:21:11.196Z,95756.19
2023-03-13T08:23:44.170Z,95770.09
2023-03-13T08:26:18.147Z,95759.69
2023-03-13T08:28:53.853Z,95765.91
2023-03-13T08:31:27.749Z,95762.03
2023-03-13T08:34:00.684Z,95773.63
2023-03-13T08:36:35.592Z,95770.56
2023-03-13T08:39:09.335Z,95764.78
2023-03-13T08:41:42.083Z,95752.00
2023-03-13T08:44:16.184Z,95742.72
2023-03-13T08:46:49.320Z,95749.66
2023-03-13T08:49:22.092Z,95735.75
2023-03-13T08:51:56.761Z,95737.28
2023-03-13T08:54:29.555Z,95728.00
2023-03-13T08:57:02.452Z,95725.69
2023-03-13T08:59:35.232Z,95721.03
2023-03-13T09:02:08.002Z,95711.75
2023-03-13T09:04:40.787Z,95713.69
2023-03-13T09:07:14.913Z,95705.22
2023-03-13T09:09:47.591Z,95699.81
2023-03-13T09:12:30.415Z,95690.56
2023-03-13T09:15:04.041Z,95688.63
2023-03-13T09:17:37.217Z,95684.03
2023-03-13T09:20:10.782Z,95679.00
2023-03-13T09:22:44.914Z,95667.06
2023-03-13T09:25:17.688Z,95676.31
2023-03-13T09:27:50.416Z,95672.47
2023-03-13T09:30:23.276Z,95663.16
2023-03-13T09:32:56.104Z,95643.47
2023-03-13T09:35:28.781Z,95646.16
2023-03-13T09:38:02.882Z,95639.19
2023-03-13T09:40:38.629Z,95629.91
2023-03-13T09:43:20.806Z,95632.19
2023-03-13T09:45:56.222Z,95636.06
2023-03-13T09:48:31.627Z,95622.88
2023-03-13T09:51:07.438Z,95627.88
2023-03-13T09:53:43.336Z,95626.72
2023-03-13T09:56:18.257Z,95613.94
2023-03-13T09:58:53.699Z,95616.63
2023-03-13T10:01:29.758Z,95613.53
2023-03-13T10:04:06.871Z,95603.84
2023-03-13T10:06:41.481Z,95594.94
2023-03-13T10:09:20.463Z,95610.00
2023-03-13T10:11:58.867Z,95593.78
2023-03-13T10:14:32.977Z,95597.97
2023-03-13T10:17:08.362Z,95595.25
2023-03-13T10:19:43.668Z,95588.69
2023-03-13T10:22:20.361Z,95600.28
2023-03-13T10:24:58.332Z,95588.25
2023-03-13T10:27:31.103Z,95573.47
2023-03-13T10:30:03.974Z,95563.41
2023-03-13T10:32:36.698Z,95558.69
2023-03-13T10:35:10.958Z,95562.13
2023-03-13T10:37:44.440Z,95557.00
2023-03-13T10:40:24.070Z,95549.56
2023-03-13T10:43:02.579Z,95545.22
2023-03-13T10:45:36.983Z,95534.25
2023-03-13T10:48:14.351Z,95527.22
2023-03-13T10:50:47.951Z,95532.16
2023-03-13T10:53:25.699Z,95528.97
2023-03-13T10:56:04.395Z,95536.63
2023-03-13T10:58:39.106Z,95527.63
2023-03-13T11:01:22.951Z,95529.50
2023-03-13T11:03:57.412Z,95525.56
2023-03-13T11:06:31.277Z,95508.09
2023-03-13T11:09:05.610Z,95502.19
2023-03-13T11:11:46.451Z,95506.44
2023-03-13T11:14:20.102Z,95495.19
2023-03-13T11:16:55.717Z,95486.28
2023-03-13T11:19:36.220Z,95481.63
2023-03-13T11:22:14.496Z,95474.25
2023-03-13T11:24:50.893Z,95465.75
2023-03-13T11:27:29.873Z,95460.31
2023-03-13T11:30:12.785Z,95451.00
2023-03-13T11:32:49.196Z,95451.72
2023-03-13T11:35:29.151Z,95454.38
2023-03-13T11:38:04.035Z,95440.72
2023-03-13T11:40:39.776Z,95451.44
2023-03-13T11:43:30.513Z,95435.44
2023-03-13T11:46:23.085Z,95438.78
2023-03-13T11:49:13.912Z,95435.53
2023-03-13T11:51:55.273Z,95431.09
2023-03-13T11:54:46.128Z,95429.81
2023-03-13T11:57:23.538Z,95417.69
2023-03-13T12:00:06.086Z,95411.44
2023-03-13T12:02:41.722Z,95404.41
2023-03-13T12:05:17.820Z,95390.41
2023-03-13T12:07:52.799Z,95393.88
2023-03-13T12:10:28.955Z,95385.31
2023-03-13T12:13:05.235Z,95374.03
2023-03-13T12:15:39.725Z,95374.44
2023-03-13T12:18:19.156Z,95365.97
2023-03-13T12:20:56.150Z,95350.50
2023-03-13T12:23:33.950Z,95345.13
2023-03-13T12:26:08.790Z,95334.34
2023-03-13T12:28:44.921Z,95327.41
2023-03-13T12:31:25.493Z,95331.00
2023-03-13T12:34:04.593Z,95321.72
2023-03-13T12:36:41.719Z,95313.97
2023-03-13T12:39:22.104Z,95308.97
2023-03-13T12:41:58.541Z,95295.78
2023-03-13T12:44:32.137Z,95290.38
2023-03-13T12:47:09.744Z,95287.66
2023-03-13T12:50:06.559Z,95286.88
2023-03-13T12:52:57.135Z,95265.94
2023-03-13T12:55:34.999Z,95257.38
2023-03-13T12:58:25.161Z,95259.31
2023-03-13T13:00:59.637Z,95250.00
2023-03-13T13:03:36.496Z,95241.06
2023-03-13T13:06:12.562Z,95225.56
2023-03-13T13:08:48.191Z,95213.16
2023-03-13T13:11:55.403Z,95196.09
2023-03-13T13:14:56.163Z,95193.06
2023-03-13T13:17:46.443Z,95184.16
2023-03-13T13:20:37.013Z,95177.19
2023-03-13T13:23:42.038Z,95169.81
2023-03-13T13:26:48.024Z,95167.50
2023-03-13T13:29:39.740Z,95144.59
2023-03-13T13:32:16.821Z,95152.66
2023-03-13T13:34:55.988Z,95149.09
2023-03-13T13:37:30.250Z,95147.09
2023-03-13T13:40:19.573Z,95134.97
2023-03-13T13:42:54.151Z,95138.38
2023-03-13T13:45:28.600Z,95133.63
2023-03-13T13:48:25.515Z,95130.38
2023-03-13T13:51:18.888Z,95124.88
2023-03-13T13:53:53.151Z,95120.16
2023-03-13T13:56:46.992Z,95106.47
2023-03-13T13:59:27.081Z,95104.09
2023-03-13T14:02:15.595Z,95102.50
2023-03-13T14:04:51.628Z,95097.84
2023-03-13T14:07:30.845Z,95092.41
2023-03-13T14:10:07.405Z,95083.47
2023-03-13T14:12:40.603Z,95079.56
2023-03-13T14:15:15.494Z,95080.75
2023-03-13T14:17:49.292Z,95066.47
2023-03-13T14:20:29.113Z,95074.63
2023-03-13T14:23:03.158Z,95063.00
2023-03-13T14:25:43.875Z,95061.06
2023-03-13T14:28:17.645Z,95061.06
2023-03-13T14:30:51.674Z,95055.19
2023-03-13T14:33:25.275Z,95051.28
2023-03-13T14:35:59.463Z,95049.34
2023-03-13T14:38:32.972Z,95042.03
2023-03-13T14:41:05.744Z,95036.25
2023-03-13T14:43:42.296Z,95022.00
2023-03-13T14:46:16.420Z,95026.75
2023-03-13T14:48:49.612Z,95022.59
2023-03-13T14:51:25.491Z,95018.44
2023-03-13T14:53:58.800Z,95003.84
2023-03-13T14:56:32.624Z,94993.16
2023-03-13T14:59:17.529Z,94994.41
2023-03-13T15:01:59.344Z,94980.22
2023-03-13T15:04:50.914Z,94986.19
2023-03-13T15:07:26.835Z,94977.34
2023-03-13T15:10:00.815Z,94975.50
2023-03-13T15:12:42.149Z,94962.75
2023-03-13T15:15:15.320Z,94962.41
2023-03-13T15:17:48.050Z,94953.50
2023-03-13T15:20:23.075Z,94962.81
2023-03-13T15:22:57.187Z,94943.50
2023-03-13T15:25:29.980Z,94944.66
2023-03-13T15:28:02.712Z,94926.59
2023-03-13T15:30:35.478Z,94932.50
2023-03-13T15:33:11.739Z,94912.50
2023-03-13T15:35:45.034Z,94913.00
2023-03-13T15:38:20.390Z,94915.88
2023-03-13T15:40:53.539Z,94904.75
2023-03-13T15:43:26.385Z,94895.16
2023-03-13T15:45:59.223Z,94884.00
2023-03-13T15:48:32.544Z,94885.16
2023-03-13T15:51:05.481Z,94881.34
2023-03-13T15:53:39.653Z,94866.25
2023-03-13T15:56:15.403Z,94856.94
2023-03-13T15:58:48.917Z,94843.81
2023-03-13T16:01:23.216Z,94835.66
2023-03-13T16:03:58.334Z,94832.13
2023-03-13T16:06:32.404Z,94819.75
2023-03-13T16:09:07.721Z,94808.91
2023-03-13T16:11:40.439Z,94796.88
2023-03-13T16:14:13.249Z,94800.75
2023-03-13T16:16:45.999Z,94796.16
2023-03-13T16:19:18.649Z,94784.66
2023-03-13T16:21:52.720Z,94775.50
2023-03-13T16:24:27.816Z,94773.28
2023-03-13T16:27:00.507Z,94774.22
2023-03-13T16:29:33.184Z,94764.63
2023-03-13T16:32:06.056Z,94753.13
2023-03-13T16:34:38.798Z,94747.78
2023-03-13T16:37:12.648Z,94738.53
2023-03-13T16:39:47.182Z,94730.13
2023-03-13T16:42:19.895Z,94728.69
2023-03-13T16:44:52.654Z,94716.81
2023-03-13T16:47:28.684Z,94713.50
2023-03-13T16:50:01.505Z,94708.66
2023-03-13T16:52:34.312Z,94705.75
2023-03-13T16:55:09.990Z,94698.22
2023-03-13T16:57:43.076Z,94696.53
2023-03-13T17:00:17.107Z,94698.25
2023-03-13T17:02:50.132Z,94686.13
2023-03-13T17:05:23.154Z,94694.00
2023-03-13T17:07:56.470Z,94686.44
2023-03-13T17:10:32.363Z,94668.88
2023-03-13T17:13:06.675Z,94667.50
2023-03-13T17:15:39.512Z,94654.22
2023-03-13T17:18:12.993Z,94650.53
2023-03-13T17:20:46.108Z,94637.56
2023-03-13T17:23:18.859Z,94623.06
2023-03-13T17:25:52.979Z,94616.66
2023-03-13T17:28:25.637Z,94604.06
2023-03-13T17:30:58.385Z,94593.00
2023-03-13T17:33:31.186Z,94596.59
2023-03-13T17:36:05.669Z,94593.56
2023-03-13T17:38:38.364Z,94596.00
2023-03-13T17:41:13.893Z,94603.06
2023-03-13T17:43:46.604Z,94591.94
2023-03-13T17:46:20.434Z,94580.09
2023-03-13T17:48:54.345Z,94583.25
2023-03-13T17:51:27.716Z,94579.16
2023-03-13T17:54:01.079Z,94570.75
2023-03-13T17:56:38.904Z,94586.31
2023-03-13T17:59:12.725Z,94598.75
2023-03-13T18:01:46.174Z,94591.09
2023-03-13T18:04:18.891Z,94582.72
2023-03-13T18:06:51.631Z,94562.00
2023-03-13T18:09:24.304Z,94566.66
2023-03-13T18:11:58.397Z,94569.47
2023-03-13T18:14:31.699Z,94565.69
2023-03-13T18:17:04.599Z,94561.16
2023-03-13T18:19:37.307Z,94563.97
2023-03-13T18:22:13.841Z,94548.66
2023-03-13T18:24:46.747Z,94546.06
2023-03-13T18:27:22.490Z,94557.34
2023-03-13T18:29:55.225Z,94567.47
2023-03-13T18:32:28.332Z,94551.78
2023-03-13T18:35:01.340Z,94533.75
2023-03-13T18:37:34.164Z,94539.63
2023-03-13T18:40:13.154Z,94543.94
2023-03-13T18:42:47.877Z,94545.19
2023-03-13T18:45:21.592Z,94546.41
2023-03-13T18:47:54.412Z,94537.25
2023-03-13T18:50:28.224Z,94556.94
2023-03-13T18:53:01.503Z,94545.84
2023-03-13T18:55:34.160Z,94548.25
2023-03-13T18:58:11.143Z,94517.94
2023-03-13T19:00:43.939Z,94533.00
2023-03-13T19:03:20.378Z,94521.91
2023-03-13T19:05:53.587Z,94535.41
2023-03-13T19:08:26.395Z,94544.63
2023-03-13T19:10:59.432Z,94537.72
2023-03-13T19:13:38.357Z,94546.53
2023-03-13T19:16:14.952Z,94534.56
2023-03-13T19:18:48.114Z,94532.63
2023-03-13T19:21:22.162Z,94537.56
2023-03-13T19:23:55.251Z,94544.41
2023-03-13T19:26:28.896Z,94542.84
2023-03-13T19:29:03.369Z,94545.84
2023-03-13T19:31:36.173Z,94542.34
2023-03-13T19:34:09.164Z,94540.38
2023-03-13T19:36:44.901Z,94541.13
2023-03-13T19:39:18.488Z,94546.53
2023-03-13T19:41:51.477Z,94551.16
2023-03-13T19:44:25.613Z,94544.66
2023-03-13T19:46:58.446Z,94548.84
2023-03-13T19:49:32.000Z,94560.06
2023-03-13T19:52:04.820Z,94580.47
2023-03-13T19:54:37.552Z,94601.25
2023-03-13T19:57:11.278Z,94615.09
2023-03-13T19:59:45.344Z,94622.03
2023-03-13T20:02:18.125Z,94610.47
2023-03-13T20:04:50.950Z,94616.25
2023-03-13T20:07:23.657Z,94621.22
2023-03-13T20:09:56.373Z,94637.34
2023-03-13T20:12:29.049Z,94667.34
2023-03-13T20:15:03.301Z,94706.53
2023-03-13T20:17:35.944Z,94729.59
2023-03-13T20:20:09.846Z,94730.34
2023-03-13T20:22:42.599Z,94724.50
2023-03-13T20:25:16.085Z,94741.72
2023-03-13T20:27:48.813Z,94778.22
2023-03-13T20:30:24.087Z,94873.28
2023-03-13T20:32:59.972Z,94908.28
2023-03-13T20:35:33.230Z,94891.66
2023-03-13T20:38:06.141Z,94892.78
2023-03-13T20:40:38.802Z,94905.44
2023-03-13T20:43:11.413Z,94934.75
2023-03-13T20:45:45.855Z,94939.41
2023-03-13T20:48:19.043Z,94927.13
2023-03-13T20:50:53.302Z,94922.97
2023-03-13T20:53:26.206Z,94921.09
2023-03-13T20:55:59.314Z,94918.47
2023-03-13T20:58:32.087Z,94908.88
2023-03-13T21:01:06.866Z,94917.41
2023-03-13T21:03:39.848Z,94919.34
2023-03-13T21:06:13.842Z,94903.63
2023-03-13T21:08:47.052Z,94875.63
2023-03-13T21:11:21.044Z,94864.13
2023-03-13T21:13:53.829Z,94878.00
2023-03-13T21:16:28.773Z,94876.56
2023-03-13T21:19:01.594Z,94876.59
2023-03-13T21:21:34.447Z,94868.53
2023-03-13T21:24:07.793Z,94877.00
2023-03-13T21:26:40.528Z,94882.41
2023-03-13T21:29:13.283Z,94890.13
2023-03-13T21:31:47.558Z,94891.63
2023-03-13T21:34:20.376Z,94886.28
2023-03-13T21:36:53.093Z,94887.81
2023-03-13T21:39:25.922Z,94882.84
2023-03-13T21:42:00.133Z,94881.69
2023-03-13T21:44:32.996Z,94878.59
2023-03-13T21:47:07.302Z,94883.22
2023-03-13T21:49:40.200Z,94881.66
2023-03-13T21:52:12.986Z,94890.88
2023-03-13T21:54:46.397Z,94901.28
2023-03-13T21:57:19.149Z,94906.66
2023-03-13T21:59:52.011Z,94908.97
2023-03-13T22:02:26.111Z,94906.66
2023-03-13T22:04:58.940Z,94897.81
2023-03-13T22:07:31.769Z,94911.25
2023-03-13T22:10:05.051Z,94946.22
2023-03-13T22:12:38.251Z,94955.44
2023-03-13T22:15:11.744Z,94963.91
2023-03-13T22:17:46.016Z,94965.81
2023-03-13T22:20:19.112Z,94960.03
2023-03-13T22:22:52.700Z,94970.78
2023-03-13T22:25:25.433Z,94981.53
2023-03-13T22:27:58.217Z,94992.28
2023-03-13T22:30:31.061Z,95006.53
2023-03-13T22:33:06.917Z,95007.28
2023-03-13T22:35:39.681Z,95021.50
2023-03-13T22:38:12.481Z,95038.00
2023-03-13T22:40:45.575Z,95044.16
2023-03-13T22:43:18.591Z,95074.09
2023-03-13T22:45:51.726Z,95084.84
2023-03-13T22:48:26.349Z,95111.31
2023-03-13T22:50:59.838Z,95122.44
2023-03-13T22:53:33.735Z,95133.53
2023-03-13T22:56:11.222Z,95141.97
2023-03-13T22:58:44.128Z,95146.19
2023-03-13T23:01:28.313Z,95156.13
2023-03-13T23:04:02.924Z,95151.84
2023-03-13T23:06:36.153Z,95157.53
2023-03-13T23:09:08.922Z,95149.00
2023-03-13T23:11:41.639Z,95148.91
2023-03-13T23:14:14.654Z,95160.31
2023-03-13T23:16:47.551Z,95142.56
2023-03-13T23:19:22.375Z,95148.63
2023-03-13T23:21:55.317Z,95123.59
2023-03-13T23:24:28.384Z,95120.09
2023-03-13T23:27:01.261Z,95125.75
2023-03-13T23:29:34.573Z,95121.84
2023-03-13T23:32:07.490Z,95114.50
2023-03-13T23:34:41.658Z,95124.00
2023-03-13T23:37:14.475Z,95107.50
2023-03-13T23:39:47.584Z,95101.31
2023-03-13T23:42:20.596Z,95103.97
2023-03-13T23:44:53.706Z,95097.78
2023-03-13T23:47:28.492Z,95092.03
2023-03-13T23:50:05.582Z,95093.53
2023-03-13T23:52:38.539Z,95088.91
2023-03-13T23:55:12.103Z,95085.81
2023-03-13T23:57:44.841Z,95078.50
